createdAt,value
2023-10-21T00:00:38.441Z,9.68
2023-10-21T00:03:05.342Z,8.65
2023-10-21T00:05:32.077Z,17.25
2023-10-21T00:07:58.807Z,22.75
2023-10-21T00:10:25.600Z,20.63
2023-10-21T00:12:52.311Z,26.27
2023-10-21T00:15:19.162Z,30.27
2023-10-21T00:17:45.969Z,22.92
2023-10-21T00:20:13.468Z,15.68
2023-10-21T00:22:40.230Z,19.88
2023-10-21T00:25:07.161Z,16.42
2023-10-21T00:27:33.885Z,12.98
2023-10-21T00:30:00.699Z,18.40
2023-10-21T00:32:27.529Z,22.20
2023-10-21T00:34:54.228Z,13.40
2023-10-21T00:37:20.917Z,15.23
2023-10-21T00:39:47.639Z,9.40
2023-10-21T00:42:14.354Z,15.38
2023-10-21T00:44:41.157Z,19.27
2023-10-21T00:47:07.951Z,14.50
2023-10-21T00:49:34.838Z,15.85
2023-10-21T00:52:01.699Z,34.42
2023-10-21T00:54:28.523Z,28.98
2023-10-21T00:56:55.387Z,25.77
2023-10-21T00:59:23.272Z,6.82
2023-10-21T01:01:50.019Z,9.65
2023-10-21T01:04:17.927Z,17.92
2023-10-21T01:06:45.226Z,17.63
2023-10-21T01:09:12.022Z,16.52
2023-10-21T01:11:38.808Z,24.35
2023-10-21T01:14:05.652Z,25.50
2023-10-21T01:16:32.502Z,9.32
2023-10-21T01:19:00.209Z,26.70
2023-10-21T01:21:27.005Z,30.88
2023-10-21T01:23:53.677Z,27.30
2023-10-21T01:26:20.421Z,16.95
2023-10-21T01:28:47.186Z,18.40
2023-10-21T01:31:14.093Z,23.77
2023-10-21T01:33:41.182Z,25.88
2023-10-21T01:36:08.043Z,13.75
2023-10-21T01:38:34.771Z,11.65
2023-10-21T01:41:02.004Z,18.30
2023-10-21T01:43:29.170Z,12.85
2023-10-21T01:45:55.998Z,4.32
2023-10-21T01:48:22.815Z,6.60
2023-10-21T01:50:49.660Z,10.50
2023-10-21T01:53:16.672Z,12.77
2023-10-21T01:55:43.566Z,10.05
2023-10-21T01:58:10.318Z,8.55
2023-10-21T02:00:36.994Z,10.00
2023-10-21T02:03:04.407Z,7.38
2023-10-21T02:05:31.256Z,7.13
2023-10-21T02:07:57.955Z,6.85
2023-10-21T02:10:24.654Z,9.75
2023-10-21T02:12:51.392Z,15.10
2023-10-21T02:15:18.404Z,25.10
2023-10-21T02:17:46.218Z,30.20
2023-10-21T02:20:14.173Z,21.58
2023-10-21T02:22:40.897Z,25.25
2023-10-21T02:25:14.354Z,23.10
2023-10-21T02:27:41.834Z,31.70
2023-10-21T02:30:10.781Z,13.10
2023-10-21T02:32:38.871Z,16.92
2023-10-21T02:35:06.130Z,26.90
2023-10-21T02:37:32.804Z,19.05
2023-10-21T02:39:59.571Z,18.35
2023-10-21T02:42:26.305Z,16.45
2023-10-21T02:44:53.369Z,17.63
2023-10-21T02:47:20.345Z,8.45
2023-10-21T02:49:47.613Z,10.20
2023-10-21T02:52:14.784Z,7.00
2023-10-21T02:54:41.454Z,7.22
2023-10-21T02:57:08.203Z,15.30
2023-10-21T02:59:38.006Z,13.43
2023-10-21T03:02:04.789Z,12.00
2023-10-21T03:04:31.460Z,18.17
2023-10-21T03:06:58.139Z,14.18
2023-10-21T03:09:24.945Z,19.67
2023-10-21T03:11:51.663Z,23.63
2023-10-21T03:14:18.349Z,8.13
2023-10-21T03:16:45.038Z,14.32
2023-10-21T03:19:11.736Z,14.13
2023-10-21T03:21:38.522Z,15.50
2023-10-21T03:24:05.678Z,6.57
2023-10-21T03:26:32.345Z,9.00
2023-10-21T03:28:59.005Z,11.02
2023-10-21T03:31:25.725Z,11.35
2023-10-21T03:33:52.940Z,5.68
2023-10-21T03:36:19.704Z,17.33
2023-10-21T03:38:46.496Z,16.45
2023-10-21T03:41:13.273Z,10.95
2023-10-21T03:43:40.029Z,5.47
2023-10-21T03:46:10.321Z,6.72
2023-10-21T03:48:37.346Z,7.00
2023-10-21T03:51:05.837Z,15.63
2023-10-21T03:53:34.077Z,9.93
2023-10-21T03:56:02.176Z,4.13
2023-10-21T03:58:29.209Z,3.45
2023-10-21T04:00:58.184Z,2.80
2023-10-21T04:03:28.380Z,5.60
2023-10-21T04:05:55.588Z,8.48
2023-10-21T04:08:22.683Z,5.90
2023-10-21T04:10:49.442Z,8.40
2023-10-21T04:13:16.178Z,7.65
2023-10-21T04:15:43.363Z,12.70
2023-10-21T04:18:10.406Z,9.13
2023-10-21T04:20:37.376Z,17.38
2023-10-21T04:23:04.234Z,15.05
2023-10-21T04:25:30.977Z,11.70
2023-10-21T04:27:57.979Z,7.18
2023-10-21T04:30:25.223Z,6.88
2023-10-21T04:32:52.688Z,6.28
2023-10-21T04:35:19.970Z,6.47
2023-10-21T04:37:46.804Z,13.70
2023-10-21T04:40:14.638Z,9.40
2023-10-21T04:42:41.482Z,7.30
2023-10-21T04:45:09.146Z,11.68
2023-10-21T04:47:35.868Z,19.48
2023-10-21T04:50:02.752Z,22.20
2023-10-21T04:52:29.474Z,18.48
2023-10-21T04:54:56.147Z,9.32
2023-10-21T04:57:22.973Z,6.60
2023-10-21T04:59:49.686Z,8.50
2023-10-21T05:02:16.400Z,11.45
2023-10-21T05:04:43.206Z,9.93
2023-10-21T05:07:09.903Z,7.68
2023-10-21T05:09:36.603Z,6.53
2023-10-21T05:12:03.480Z,6.90
2023-10-21T05:14:30.253Z,7.32
2023-10-21T05:16:57.077Z,7.28
2023-10-21T05:19:24.279Z,7.00
2023-10-21T05:21:51.011Z,7.70
2023-10-21T05:24:17.703Z,7.43
2023-10-21T05:26:44.463Z,6.97
2023-10-21T05:29:13.054Z,8.30
2023-10-21T05:31:39.929Z,6.88
2023-10-21T05:34:06.703Z,7.80
2023-10-21T05:36:33.404Z,7.00
2023-10-21T05:39:00.188Z,6.90
2023-10-21T05:41:26.946Z,6.03
2023-10-21T05:43:53.647Z,7.18
2023-10-21T05:46:20.374Z,7.20
2023-10-21T05:48:47.122Z,7.18
2023-10-21T05:51:13.881Z,6.30
2023-10-21T05:53:40.718Z,7.10
2023-10-21T05:56:07.649Z,7.20
2023-10-21T05:58:35.237Z,13.52
2023-10-21T06:01:10.131Z,10.23
2023-10-21T06:03:37.350Z,8.65
2023-10-21T06:06:04.810Z,7.38
2023-10-21T06:08:31.663Z,8.73
2023-10-21T06:10:58.726Z,9.65
2023-10-21T06:13:26.163Z,11.82
2023-10-21T06:15:53.348Z,10.85
2023-10-21T06:18:21.804Z,10.73
2023-10-21T06:20:52.902Z,11.55
2023-10-21T06:23:19.797Z,11.05
2023-10-21T06:25:46.976Z,10.48
2023-10-21T06:28:16.921Z,12.07
2023-10-21T06:30:44.935Z,11.38
2023-10-21T06:33:12.472Z,5.50
2023-10-21T06:35:39.567Z,5.22
2023-10-21T06:38:07.453Z,6.60
2023-10-21T06:43:19.093Z,5.00
2023-10-21T06:45:46.591Z,8.10
2023-10-21T06:48:13.706Z,8.70
2023-10-21T06:50:40.499Z,11.55
2023-10-21T06:53:07.417Z,9.98
2023-10-21T06:55:44.006Z,7.32
2023-10-21T06:58:11.352Z,4.28
2023-10-21T07:00:38.502Z,4.90
2023-10-21T07:03:06.801Z,5.13
2023-10-21T07:05:33.882Z,4.07
2023-10-21T07:08:00.596Z,2.75
2023-10-21T07:10:30.620Z,3.33
2023-10-21T07:12:58.594Z,5.00
2023-10-21T07:15:29.176Z,6.10
2023-10-21T07:17:56.616Z,3.65
2023-10-21T07:20:23.886Z,3.53
2023-10-21T07:22:50.708Z,4.75
2023-10-21T07:25:19.437Z,4.00
2023-10-21T07:27:46.932Z,7.25
2023-10-21T07:32:40.627Z,3.42
2023-10-21T07:35:07.628Z,3.00
2023-10-21T07:37:34.497Z,3.92
2023-10-21T07:40:01.241Z,2.80
2023-10-21T07:42:28.223Z,2.25
2023-10-21T07:44:55.078Z,2.55
2023-10-21T07:47:23.105Z,2.05
2023-10-21T07:49:54.081Z,1.75
2023-10-21T07:52:23.084Z,1.85
2023-10-21T07:54:49.831Z,2.33
2023-10-21T07:57:17.171Z,2.63
2023-10-21T07:59:44.335Z,2.22
2023-10-21T08:02:11.428Z,1.83
2023-10-21T08:04:38.388Z,2.05
2023-10-21T08:07:05.319Z,2.08
2023-10-21T08:09:32.125Z,1.58
2023-10-21T08:11:59.112Z,1.42
2023-10-21T08:14:27.827Z,2.00
2023-10-21T08:16:54.590Z,1.70
2023-10-21T08:19:21.365Z,1.52
2023-10-21T08:21:48.164Z,1.98
2023-10-21T08:24:14.939Z,2.13
2023-10-21T08:26:42.120Z,1.70
2023-10-21T08:29:11.505Z,1.95
2023-10-21T08:31:38.356Z,1.63
2023-10-21T08:34:06.429Z,2.20
2023-10-21T08:36:33.623Z,2.13
2023-10-21T08:39:00.410Z,1.80
2023-10-21T08:41:27.523Z,1.70
2023-10-21T08:43:54.218Z,1.60
2023-10-21T08:46:20.953Z,1.83
2023-10-21T08:48:48.807Z,2.20
2023-10-21T08:51:21.851Z,1.67
2023-10-21T08:53:50.545Z,2.15
2023-10-21T08:56:17.767Z,1.42
2023-10-21T08:58:44.479Z,1.95
2023-10-21T09:01:12.396Z,1.83
2023-10-21T09:03:39.310Z,1.80
2023-10-21T09:06:13.242Z,1.88
2023-10-21T09:08:42.054Z,1.45
2023-10-21T09:11:19.770Z,1.95
2023-10-21T09:13:46.569Z,2.55
2023-10-21T09:16:20.673Z,1.90
2023-10-21T09:19:08.124Z,2.33
2023-10-21T09:21:39.599Z,2.05
2023-10-21T09:24:06.739Z,2.05
2023-10-21T09:26:34.084Z,2.10
2023-10-21T09:29:13.986Z,2.20
2023-10-21T09:31:53.406Z,1.98
2023-10-21T09:34:26.181Z,1.77
2023-10-21T09:36:57.695Z,2.22
2023-10-21T09:39:25.316Z,2.40
2023-10-21T09:44:18.789Z,1.98
2023-10-21T09:46:45.888Z,1.55
2023-10-21T09:49:14.811Z,2.00
2023-10-21T09:51:48.474Z,2.15
2023-10-21T09:54:16.472Z,2.22
2023-10-21T09:56:44.149Z,2.17
2023-10-21T10:01:41.187Z,2.25
2023-10-21T10:04:11.578Z,2.20
2023-10-21T10:06:40.272Z,1.58
2023-10-21T10:09:08.867Z,1.85
2023-10-21T10:11:36.790Z,1.70
2023-10-21T10:14:03.493Z,2.05
2023-10-21T10:16:30.996Z,1.70
2023-10-21T10:18:57.829Z,2.70
2023-10-21T10:21:24.656Z,2.28
2023-10-21T10:24:01.643Z,1.98
2023-10-21T10:26:33.433Z,1.83
2023-10-21T10:29:03.146Z,1.50
2023-10-21T10:31:30.544Z,2.28
2023-10-21T10:33:57.273Z,1.52
2023-10-21T10:36:28.590Z,2.20
2023-10-21T10:38:56.166Z,2.22
2023-10-21T10:41:22.976Z,2.00
2023-10-21T10:44:03.342Z,1.30
2023-10-21T10:46:32.946Z,2.00
2023-10-21T10:49:01.658Z,1.55
2023-10-21T10:51:32.142Z,1.73
2023-10-21T10:54:02.253Z,1.75
2023-10-21T10:56:41.990Z,1.67
2023-10-21T10:59:08.752Z,1.65
2023-10-21T11:01:35.907Z,1.83
2023-10-21T11:04:03.533Z,1.27
2023-10-21T11:09:21.239Z,2.05
2023-10-21T11:12:02.838Z,1.45
2023-10-21T11:14:34.368Z,1.83
2023-10-21T11:17:01.946Z,1.75
2023-10-21T11:19:28.671Z,1.58
2023-10-21T11:21:55.410Z,1.73
2023-10-21T11:24:23.517Z,1.70
2023-10-21T11:26:50.976Z,1.80
2023-10-21T11:29:18.826Z,1.80
2023-10-21T11:31:45.802Z,1.73
2023-10-21T11:34:16.709Z,1.58
2023-10-21T11:36:49.186Z,1.80
2023-10-21T11:39:16.768Z,1.90
2023-10-21T11:41:50.402Z,1.55
2023-10-21T11:44:18.731Z,1.77
2023-10-21T11:46:45.590Z,1.55
2023-10-21T11:49:15.254Z,1.83
2023-10-21T11:51:43.007Z,2.10
2023-10-21T11:56:55.874Z,1.48
2023-10-21T11:59:41.062Z,1.70
2023-10-21T12:02:26.420Z,1.58
2023-10-21T12:04:55.968Z,1.55
2023-10-21T12:07:34.722Z,1.80
2023-10-21T12:10:20.048Z,1.88
2023-10-21T12:13:05.275Z,2.28
2023-10-21T12:15:50.593Z,1.70
2023-10-21T12:18:26.719Z,1.60
2023-10-21T12:21:12.382Z,1.60
2023-10-21T12:23:48.188Z,1.45
2023-10-21T12:26:20.747Z,1.17
2023-10-21T12:28:47.401Z,2.15
2023-10-21T12:31:32.939Z,2.05
2023-10-21T12:34:18.205Z,1.88
2023-10-21T12:37:04.887Z,1.90
2023-10-21T12:39:57.823Z,1.88
2023-10-21T12:42:29.270Z,1.50
2023-10-21T12:44:58.522Z,1.73
2023-10-21T12:47:25.809Z,1.60
2023-10-21T12:49:56.895Z,1.63
2023-10-21T12:52:24.368Z,1.98
2023-10-21T12:54:52.870Z,2.00
2023-10-21T12:57:19.916Z,2.08
2023-10-21T12:59:47.206Z,1.60
2023-10-21T13:02:13.962Z,1.88
2023-10-21T13:04:42.118Z,1.70
2023-10-21T13:07:10.295Z,1.98
2023-10-21T13:09:39.150Z,1.70
2023-10-21T13:12:11.004Z,2.08
2023-10-21T13:14:39.854Z,1.67
2023-10-21T13:17:09.640Z,2.20
2023-10-21T13:19:36.459Z,1.85
2023-10-21T13:22:07.115Z,1.92
2023-10-21T13:24:35.745Z,2.15
2023-10-21T13:27:03.046Z,1.83
2023-10-21T13:29:29.782Z,2.17
2023-10-21T13:31:56.471Z,1.70
2023-10-21T13:34:23.258Z,1.30
2023-10-21T13:36:50.063Z,1.73
2023-10-21T13:39:17.111Z,2.10
2023-10-21T13:41:44.023Z,1.67
2023-10-21T13:44:10.694Z,2.30
2023-10-21T13:46:37.479Z,1.52
2023-10-21T13:49:06.843Z,1.63
2023-10-21T13:51:33.634Z,1.55
2023-10-21T13:54:00.499Z,1.67
2023-10-21T13:56:27.274Z,1.63
2023-10-21T13:58:56.555Z,2.60
2023-10-21T14:01:25.359Z,1.70
2023-10-21T14:03:52.162Z,1.85
2023-10-21T14:06:20.861Z,1.88
2023-10-21T14:08:47.844Z,2.03
2023-10-21T14:11:14.554Z,2.05
2023-10-21T14:13:41.299Z,1.42
2023-10-21T14:16:10.760Z,1.65
2023-10-21T14:18:37.626Z,1.60
2023-10-21T14:21:05.265Z,1.90
2023-10-21T14:23:32.110Z,2.20
2023-10-21T14:25:59.627Z,3.08
2023-10-21T14:28:27.630Z,2.50
2023-10-21T14:30:56.355Z,3.78
2023-10-21T14:33:24.277Z,4.60
2023-10-21T14:38:20.032Z,3.50
2023-10-21T14:40:47.062Z,2.65
2023-10-21T14:43:15.169Z,3.40
2023-10-21T14:45:44.159Z,4.07
2023-10-21T14:48:11.387Z,3.90
2023-10-21T14:50:39.566Z,3.90
2023-10-21T14:53:08.581Z,3.90
2023-10-21T14:55:50.698Z,4.55
2023-10-21T14:58:19.477Z,5.22
2023-10-21T15:00:46.646Z,4.68
2023-10-21T15:03:18.237Z,3.78
2023-10-21T15:05:48.239Z,3.60
2023-10-21T15:08:15.656Z,3.65
2023-10-21T15:10:44.921Z,3.75
2023-10-21T15:13:11.905Z,3.72
2023-10-21T15:15:38.639Z,4.28
2023-10-21T15:18:07.104Z,4.18
2023-10-21T15:20:33.888Z,4.60
2023-10-21T15:23:00.975Z,4.45
2023-10-21T15:25:27.694Z,4.65
2023-10-21T15:27:54.472Z,4.75
2023-10-21T15:30:21.991Z,5.38
2023-10-21T15:32:49.225Z,6.18
2023-10-21T15:35:16.110Z,7.18
2023-10-21T15:37:46.233Z,5.30
2023-10-21T15:40:14.552Z,5.90
2023-10-21T15:42:44.057Z,5.60
2023-10-21T15:45:14.469Z,5.28
2023-10-21T15:47:41.503Z,5.28
2023-10-21T15:50:11.693Z,4.07
2023-10-21T15:52:38.645Z,4.80
2023-10-21T15:55:05.993Z,5.53
2023-10-21T15:57:36.911Z,7.15
2023-10-21T16:00:07.509Z,10.70
2023-10-21T16:02:38.451Z,12.18
2023-10-21T16:05:05.799Z,15.30
2023-10-21T16:07:36.848Z,16.90
2023-10-21T16:10:10.075Z,11.68
2023-10-21T16:12:36.845Z,13.18
2023-10-21T16:15:05.079Z,10.13
2023-10-21T16:19:59.753Z,6.72
2023-10-21T16:22:27.315Z,9.60
2023-10-21T16:24:54.055Z,9.48
2023-10-21T16:27:20.811Z,9.90
2023-10-21T16:29:47.842Z,8.05
2023-10-21T16:32:15.781Z,7.53
2023-10-21T16:34:42.471Z,5.28
2023-10-21T16:37:09.408Z,3.17
2023-10-21T16:39:36.359Z,3.92
2023-10-21T16:42:03.668Z,5.35
2023-10-21T16:44:30.339Z,5.53
2023-10-21T16:46:57.106Z,7.40
2023-10-21T16:49:23.788Z,4.35
2023-10-21T16:51:50.625Z,3.80
2023-10-21T16:54:17.465Z,4.60
2023-10-21T16:56:44.256Z,3.60
2023-10-21T16:59:10.942Z,3.85
2023-10-21T17:01:37.776Z,3.33
2023-10-21T17:04:05.381Z,4.88
2023-10-21T17:06:32.350Z,4.93
2023-10-21T17:09:00.660Z,4.80
2023-10-21T17:13:56.934Z,5.78
2023-10-21T17:16:23.820Z,6.28
2023-10-21T17:18:51.058Z,8.18
2023-10-21T17:21:17.824Z,5.40
2023-10-21T17:23:44.538Z,5.97
2023-10-21T17:26:11.286Z,5.25
2023-10-21T17:28:38.185Z,5.38
2023-10-21T17:31:05.551Z,5.63
2023-10-21T17:33:43.525Z,4.40
2023-10-21T17:36:17.391Z,4.30
2023-10-21T17:38:44.169Z,10.05
2023-10-21T17:41:10.846Z,8.10
2023-10-21T17:43:37.616Z,5.65
2023-10-21T17:46:05.781Z,5.35
2023-10-21T17:48:33.116Z,5.00
2023-10-21T17:50:59.917Z,4.93
2023-10-21T17:53:26.689Z,4.90
2023-10-21T17:55:53.562Z,4.60
2023-10-21T17:58:20.278Z,4.50
2023-10-21T18:00:47.051Z,5.30
2023-10-21T18:03:14.019Z,4.18
2023-10-21T18:05:40.910Z,4.63
2023-10-21T18:08:07.691Z,4.93
2023-10-21T18:10:34.454Z,5.32
2023-10-21T18:13:01.114Z,4.78
2023-10-21T18:15:27.952Z,3.65
2023-10-21T18:17:54.682Z,4.78
2023-10-21T18:20:21.442Z,3.35
2023-10-21T18:22:48.229Z,4.60
2023-10-21T18:25:15.081Z,5.40
2023-10-21T18:27:41.853Z,4.57
2023-10-21T18:30:09.066Z,5.55
2023-10-21T18:32:35.829Z,3.72
2023-10-21T18:35:02.600Z,3.42
2023-10-21T18:37:29.265Z,3.10
2023-10-21T18:39:56.053Z,4.32
2023-10-21T18:42:22.790Z,3.80
2023-10-21T18:44:49.715Z,3.67
2023-10-21T18:47:16.451Z,3.60
2023-10-21T18:49:43.142Z,4.88
2023-10-21T18:52:09.849Z,4.50
2023-10-21T18:54:36.703Z,3.88
2023-10-21T18:57:03.769Z,3.72
2023-10-21T18:59:32.769Z,3.70
2023-10-21T19:01:59.694Z,3.45
2023-10-21T19:04:26.399Z,3.47
2023-10-21T19:06:53.544Z,2.97
2023-10-21T19:09:20.744Z,3.33
2023-10-21T19:11:47.554Z,3.97
2023-10-21T19:14:14.292Z,3.15
2023-10-21T19:16:41.127Z,4.63
2023-10-21T19:19:07.882Z,4.05
2023-10-21T19:21:34.769Z,4.28
2023-10-21T19:24:02.135Z,4.15
2023-10-21T19:26:29.034Z,4.07
2023-10-21T19:28:55.880Z,3.65
2023-10-21T19:31:22.844Z,3.55
2023-10-21T19:33:49.671Z,4.30
2023-10-21T19:36:16.776Z,3.83
2023-10-21T19:38:43.891Z,3.95
2023-10-21T19:41:11.640Z,3.85
2023-10-21T19:43:38.373Z,4.68
2023-10-21T19:46:06.719Z,3.25
2023-10-21T19:48:34.183Z,4.38
2023-10-21T19:51:07.749Z,3.47
2023-10-21T19:53:34.670Z,3.47
2023-10-21T19:56:02.344Z,3.05
2023-10-21T19:58:29.096Z,3.72
2023-10-21T20:01:03.959Z,4.90
2023-10-21T20:03:31.762Z,3.35
2023-10-21T20:05:58.602Z,3.17
2023-10-21T20:08:25.421Z,3.05
2023-10-21T20:11:05.240Z,3.67
2023-10-21T20:13:32.165Z,3.45
2023-10-21T20:15:59.010Z,3.17
2023-10-21T20:18:25.922Z,3.67
2023-10-21T20:20:52.640Z,3.92
2023-10-21T20:23:19.416Z,4.22
2023-10-21T20:25:46.116Z,4.25
2023-10-21T20:28:13.830Z,4.72
2023-10-21T20:30:43.023Z,4.60
2023-10-21T20:33:09.879Z,4.60
2023-10-21T20:35:40.988Z,4.57
2023-10-21T20:38:07.747Z,3.70
2023-10-21T20:40:34.506Z,3.45
2023-10-21T20:43:01.236Z,2.72
2023-10-21T20:45:27.925Z,3.33
2023-10-21T20:47:54.842Z,3.00
2023-10-21T20:50:21.570Z,3.65
2023-10-21T20:52:48.221Z,3.50
2023-10-21T20:55:15.437Z,3.35
2023-10-21T20:57:42.450Z,3.20
2023-10-21T21:01:19.984Z,3.65
2023-10-21T21:02:59.068Z,3.65
2023-10-21T21:05:25.813Z,4.07
2023-10-21T21:07:54.064Z,5.32
2023-10-21T21:12:53.732Z,3.50
2023-10-21T21:15:20.957Z,3.38
2023-10-21T21:17:49.362Z,2.97
2023-10-21T21:22:42.816Z,3.17
2023-10-21T21:25:09.745Z,2.42
2023-10-21T21:27:36.940Z,2.28
2023-10-21T21:30:04.152Z,2.67
2023-10-21T21:32:30.985Z,2.55
2023-10-21T21:34:57.736Z,3.70
2023-10-21T21:37:24.575Z,3.13
2023-10-21T21:39:56.564Z,3.22
2023-10-21T21:42:23.832Z,3.05
2023-10-21T21:44:50.844Z,2.70
2023-10-21T21:47:17.574Z,2.35
2023-10-21T21:49:44.912Z,2.78
2023-10-21T21:52:11.598Z,3.28
2023-10-21T21:54:38.452Z,2.83
2023-10-21T21:57:05.425Z,3.13
2023-10-21T21:59:32.160Z,2.83
2023-10-21T22:01:58.862Z,2.40
2023-10-21T22:04:25.660Z,2.50
2023-10-21T22:06:52.457Z,2.90
2023-10-21T22:09:19.242Z,3.05
2023-10-21T22:11:46.211Z,2.75
2023-10-21T22:14:13.242Z,2.83
2023-10-21T22:16:40.537Z,3.08
2023-10-21T22:19:13.346Z,3.00
2023-10-21T22:21:40.137Z,3.38
2023-10-21T22:24:07.882Z,2.50
2023-10-21T22:26:45.536Z,3.13
2023-10-21T22:29:12.729Z,2.92
2023-10-21T22:31:39.556Z,3.22
2023-10-21T22:34:07.053Z,2.45
2023-10-21T22:36:33.802Z,2.47
2023-10-21T22:39:00.985Z,2.85
2023-10-21T22:41:28.093Z,3.10
2023-10-21T22:43:54.835Z,3.28
2023-10-21T22:46:21.722Z,2.60
2023-10-21T22:48:48.421Z,3.25
2023-10-21T22:51:15.258Z,3.38
2023-10-21T22:53:42.082Z,3.53
2023-10-21T22:56:08.821Z,2.88
2023-10-21T22:58:35.532Z,2.55
2023-10-21T23:01:06.199Z,3.03
2023-10-21T23:03:32.997Z,3.33
2023-10-21T23:06:01.703Z,2.80
2023-10-21T23:08:36.794Z,2.92
2023-10-21T23:11:04.745Z,4.28
2023-10-21T23:13:32.421Z,3.20
2023-10-21T23:15:59.314Z,3.13
2023-10-21T23:18:26.401Z,3.42
2023-10-21T23:20:53.314Z,3.47
2023-10-21T23:23:22.679Z,3.85
2023-10-21T23:25:49.935Z,3.50
2023-10-21T23:28:16.821Z,3.15
2023-10-21T23:30:43.577Z,2.60
2023-10-21T23:33:10.659Z,2.35
2023-10-21T23:35:38.247Z,3.17
2023-10-21T23:38:06.497Z,2.83
2023-10-21T23:40:34.031Z,2.75
2023-10-21T23:43:02.805Z,3.17
2023-10-21T23:45:29.699Z,3.35
2023-10-21T23:47:56.588Z,2.95
2023-10-21T23:50:24.063Z,2.30
2023-10-21T23:52:55.464Z,2.58
2023-10-21T23:55:22.347Z,2.40
2023-10-21T23:57:49.254Z,2.80
